Time;durP1;ratioP1;P1;durP2;ratioP2;P2;SDS_P1;SDS_P2;PMS_P1;PMS_P2;Temp;Humidity;BMP_temperature;BMP_pressure;BME280_temperature;BME280_humidity;BME280_pressure;Samples;Min_cycle;Max_cycle;Signal;HPM_P1;HPM_P2
2023/06/12 00:02:17;;;;;;;8.82;5.65;;;;;;;19.99;83.78;100654.34;5014459;28;20041;-87
2023/06/12 00:04:44;;;;;;;9.35;5.13;;;;;;;20.04;83.42;100658.22;5031885;28;20075;-87
2023/06/12 00:07:10;;;;;;;7.63;4.60;;;;;;;19.98;84.42;100655.31;5031251;28;20037;-87
2023/06/12 00:09:36;;;;;;;9.90;5.43;;;;;;;20.06;83.98;100660.72;5031814;28;20553;-88
2023/06/12 00:12:01;;;;;;;6.47;4.95;;;;;;;20.02;84.78;100661.94;5030682;28;20041;-87
2023/06/12 00:14:26;;;;;;;6.45;4.95;;;;;;;19.96;84.61;100667.72;5032046;28;20510;-87
2023/06/12 00:16:52;;;;;;;9.80;5.55;;;;;;;20.00;84.09;100666.50;5030868;28;20087;-87
2023/06/12 00:19:18;;;;;;;13.73;5.40;;;;;;;19.94;84.50;100659.16;5030752;28;20050;-87
2023/06/12 00:21:44;;;;;;;7.93;5.40;;;;;;;20.00;84.62;100674.38;5030747;28;20037;-86
2023/06/12 00:24:09;;;;;;;7.10;5.43;;;;;;;19.96;85.33;100665.09;5029913;28;20036;-87
2023/06/12 00:26:35;;;;;;;10.38;5.60;;;;;;;19.87;84.80;100663.31;5030679;28;20041;-87
2023/06/12 00:29:01;;;;;;;8.90;4.85;;;;;;;19.93;83.99;100670.63;5047152;28;20028;-87
2023/06/12 00:31:26;;;;;;;5.35;4.38;;;;;;;19.95;83.63;100679.19;5030343;28;20500;-87
2023/06/12 00:33:52;;;;;;;4.93;4.00;;;;;;;20.00;82.68;100679.63;5047000;28;20049;-87
2023/06/12 00:36:17;;;;;;;12.15;3.80;;;;;;;19.61;83.39;100637.53;5047061;28;20033;-87
2023/06/12 00:38:43;;;;;;;5.95;4.22;;;;;;;19.74;83.89;100674.03;5013594;28;20112;-86
2023/06/12 00:41:08;;;;;;;5.53;4.10;;;;;;;19.73;82.35;100667.94;5030398;28;20037;-87
2023/06/12 00:43:34;;;;;;;6.15;3.88;;;;;;;19.75;82.63;100680.94;5030313;28;20029;-87
2023/06/12 00:46:00;;;;;;;10.55;4.28;;;;;;;19.64;82.60;100681.84;5030307;28;20038;-87
2023/06/12 00:48:26;;;;;;;8.48;4.65;;;;;;;19.62;83.33;100686.41;5030217;28;20075;-87
2023/06/12 00:50:52;;;;;;;7.30;3.92;;;;;;;19.52;83.83;100682.88;5030193;28;20033;-87
2023/06/12 00:53:18;;;;;;;6.50;4.30;;;;;;;19.38;83.78;100678.00;5029645;28;20411;-87
2023/06/12 00:55:43;;;;;;;12.00;4.28;;;;;;;19.42;83.91;100684.63;5013548;28;20475;-87
2023/06/12 00:58:09;;;;;;;6.72;4.78;;;;;;;19.33;84.06;100682.78;5030015;28;20026;-87
2023/06/12 01:00:38;;;;;;;8.27;4.53;;;;;;;19.21;84.08;100671.53;5013542;28;20029;-87
2023/06/12 01:03:05;;;;;;;7.93;4.43;;;;;;;19.32;84.07;100681.94;5046453;28;20025;-88
2023/06/12 01:05:40;;;;;;;8.23;4.55;;;;;;;19.41;83.29;100688.22;5029805;28;20391;-88
2023/06/12 01:08:17;;;;;;;6.95;4.43;;;;;;;19.42;83.71;100689.88;5013193;28;20025;-87
2023/06/12 01:11:05;;;;;;;8.15;4.80;;;;;;;19.33;84.83;100685.41;5030397;28;20036;-87
2023/06/12 01:13:31;;;;;;;9.07;4.63;;;;;;;19.38;83.63;100693.72;5042919;28;20044;-87
2023/06/12 01:15:56;;;;;;;7.43;4.40;;;;;;;19.42;83.95;100703.00;5029516;28;20029;-87
2023/06/12 01:18:22;;;;;;;6.60;5.07;;;;;;;19.42;84.26;100705.63;5046370;28;20029;-87
2023/06/12 01:20:49;;;;;;;7.22;5.13;;;;;;;19.39;84.62;100703.25;5045993;28;20036;-88
2023/06/12 01:23:36;;;;;;;8.15;4.90;;;;;;;19.48;84.37;100712.97;5029189;28;20059;-87
2023/06/12 01:26:33;;;;;;;8.82;5.60;;;;;;;19.48;84.28;100710.34;5030888;28;20025;-87
2023/06/12 01:29:23;;;;;;;13.98;4.93;;;;;;;19.42;82.94;100706.44;5029606;28;20120;-87
2023/06/12 01:32:07;;;;;;;7.43;5.50;;;;;;;19.49;82.95;100709.41;5029199;28;20116;-88
2023/06/12 01:35:05;;;;;;;6.28;4.03;;;;;;;19.40;83.46;100707.53;5046246;28;20514;-87
2023/06/12 01:37:42;;;;;;;8.02;4.53;;;;;;;19.40;83.84;100708.38;5044251;28;20025;-88
2023/06/12 01:40:08;;;;;;;7.82;5.32;;;;;;;19.45;83.82;100707.97;5044994;28;20124;-88
2023/06/12 01:42:33;;;;;;;6.22;4.88;;;;;;;19.48;83.42;100699.88;5045954;28;20025;-88
2023/06/12 01:44:59;;;;;;;6.03;4.60;;;;;;;19.51;82.27;100702.22;5029354;28;20022;-88
2023/06/12 01:47:25;;;;;;;8.63;5.07;;;;;;;19.54;82.80;100707.19;5045689;28;20029;-87
2023/06/12 01:49:50;;;;;;;7.22;4.82;;;;;;;19.46;83.18;100696.50;5029313;28;20507;-87
2023/06/12 01:52:16;;;;;;;7.13;4.45;;;;;;;19.55;83.00;100711.47;5029071;28;20033;-88
2023/06/12 01:54:41;;;;;;;9.88;5.38;;;;;;;19.59;83.25;100707.69;5029384;28;20028;-87
2023/06/12 01:57:07;;;;;;;6.90;4.55;;;;;;;19.62;82.85;100707.41;5028963;28;20041;-88
2023/06/12 01:59:34;;;;;;;7.82;4.68;;;;;;;19.49;82.45;100681.38;5029223;28;20057;-87
2023/06/12 02:02:00;;;;;;;5.55;4.40;;;;;;;19.57;81.83;100699.13;5012884;28;20025;-87
2023/06/12 02:04:28;;;;;;;8.65;4.20;;;;;;;19.55;81.73;100687.03;5029081;28;20033;-87
2023/06/12 02:06:53;;;;;;;6.05;4.32;;;;;;;19.64;81.84;100713.34;5012669;28;20437;-88
2023/06/12 02:09:19;;;;;;;6.07;4.22;;;;;;;19.55;82.64;100706.22;5045765;28;20083;-87
2023/06/12 02:11:44;;;;;;;11.65;4.93;;;;;;;19.43;82.91;100700.25;5028927;28;20655;-87
2023/06/12 02:14:10;;;;;;;6.93;4.30;;;;;;;19.46;82.07;100693.88;5029417;28;20030;-87
2023/06/12 02:16:35;;;;;;;7.82;4.93;;;;;;;19.43;82.59;100702.03;5045795;28;20033;-88
2023/06/12 02:19:01;;;;;;;9.43;4.32;;;;;;;19.56;83.22;100713.16;5030388;28;20032;-88
2023/06/12 02:21:26;;;;;;;6.32;4.53;;;;;;;19.48;83.62;100715.59;5045369;28;20471;-88
2023/06/12 02:23:52;;;;;;;8.90;4.60;;;;;;;19.52;83.22;100717.00;5031351;28;20079;-88
2023/06/12 02:26:17;;;;;;;6.70;5.15;;;;;;;19.54;83.38;100720.31;5032855;28;20479;-88
2023/06/12 02:28:43;;;;;;;6.57;4.20;;;;;;;19.47;83.93;100721.81;5032898;28;20040;-87
2023/06/12 02:31:09;;;;;;;6.45;3.97;;;;;;;19.49;83.42;100728.59;5032548;28;20037;-87
2023/06/12 02:33:37;;;;;;;6.97;5.03;;;;;;;19.50;83.87;100724.16;5016127;28;20033;-88
2023/06/12 02:36:03;;;;;;;7.60;4.85;;;;;;;19.50;83.46;100724.16;5048953;28;20490;-88
2023/06/12 02:38:28;;;;;;;6.15;4.57;;;;;;;19.57;83.10;100730.59;5049176;28;20021;-88
2023/06/12 02:40:54;;;;;;;8.65;4.00;;;;;;;19.59;83.61;100722.59;5032615;28;20029;-87
2023/06/12 02:43:19;;;;;;;6.07;4.80;;;;;;;19.56;83.39;100717.59;5048856;28;20041;-87
2023/06/12 02:45:45;;;;;;;5.68;4.22;;;;;;;19.52;83.45;100718.78;5033342;28;20030;-88
2023/06/12 02:48:10;;;;;;;6.72;4.80;;;;;;;19.39;84.38;100711.97;5049100;28;20028;-88
2023/06/12 02:50:36;;;;;;;8.23;4.22;;;;;;;19.51;84.97;100731.06;5032524;28;20080;-87
2023/06/12 02:53:01;;;;;;;9.00;4.88;;;;;;;19.49;84.74;100722.50;5049642;28;20087;-89
2023/06/12 02:55:27;;;;;;;6.28;4.55;;;;;;;19.48;84.61;100718.22;5032695;28;20033;-92
2023/06/12 02:57:53;;;;;;;10.00;4.70;;;;;;;19.36;85.79;100706.13;5049007;28;20037;-90
2023/06/12 03:00:18;;;;;;;6.30;4.35;;;;;;;19.35;86.08;100717.59;5049372;28;20056;-90
2023/06/12 03:02:45;;;;;;;10.27;4.70;;;;;;;19.27;87.23;100707.75;5032525;28;20610;-88
2023/06/12 03:05:14;;;;;;;6.72;4.88;;;;;;;19.54;84.32;100715.06;5031933;28;20029;-89
2023/06/12 03:07:41;;;;;;;6.65;4.57;;;;;;;19.57;84.61;100714.84;5048347;28;20083;-88
2023/06/12 03:10:08;;;;;;;5.97;4.43;;;;;;;19.69;83.69;100719.06;5015609;28;20388;-89
2023/06/12 03:12:34;;;;;;;9.75;4.85;;;;;;;19.74;84.38;100734.38;5015492;28;20111;-89
2023/06/12 03:15:00;;;;;;;6.18;4.40;;;;;;;19.64;83.92;100710.72;5032331;28;20532;-90
2023/06/12 03:17:25;;;;;;;9.20;5.20;;;;;;;19.84;84.82;100737.88;5015600;28;20029;-89
2023/06/12 03:19:51;;;;;;;6.75;4.40;;;;;;;19.84;85.22;100739.69;5015285;28;20029;-88
2023/06/12 03:22:16;;;;;;;7.75;4.55;;;;;;;19.73;85.79;100736.19;5015453;28;20032;-90
2023/06/12 03:24:43;;;;;;;10.02;4.72;;;;;;;19.63;85.98;100722.19;5015389;28;20124;-89
2023/06/12 03:27:09;;;;;;;10.07;4.85;;;;;;;19.77;86.14;100742.84;5032055;28;20071;-90
2023/06/12 03:29:35;;;;;;;12.23;5.88;;;;;;;19.85;85.25;100759.72;5047232;28;20044;-89
2023/06/12 03:32:00;;;;;;;10.18;5.55;;;;;;;19.89;84.89;100750.63;5047287;28;20025;-89
2023/06/12 03:34:25;;;;;;;12.48;6.60;;;;;;;19.81;85.56;100745.22;5050837;28;20471;-90
2023/06/12 03:36:51;;;;;;;14.13;6.80;;;;;;;19.77;85.49;100747.28;5052014;28;20491;-89
2023/06/12 03:39:16;;;;;;;13.93;5.38;;;;;;;20.02;85.32;100751.22;5052142;28;20033;-84
2023/06/12 03:41:57;;;;;;;10.27;6.28;;;;;;;19.99;84.40;100748.88;5051403;28;20039;-93
2023/06/12 03:44:23;;;;;;;10.90;5.43;;;;;;;19.94;84.36;100745.81;5051277;28;20100;-90
2023/06/12 03:46:49;;;;;;;6.97;5.15;;;;;;;19.97;84.22;100756.06;5051325;28;20039;-90
2023/06/12 03:49:14;;;;;;;9.57;5.15;;;;;;;19.93;84.87;100762.53;5034576;28;20090;-91
2023/06/12 03:51:40;;;;;;;11.20;5.15;;;;;;;19.91;85.29;100753.94;5051522;28;20083;-91
2023/06/12 03:54:06;;;;;;;7.47;5.72;;;;;;;19.92;84.10;100763.50;5050708;28;20502;-90
2023/06/12 03:56:31;;;;;;;7.97;5.55;;;;;;;19.95;84.23;100765.84;5051307;28;20029;-91
2023/06/12 03:58:57;;;;;;;10.45;4.72;;;;;;;19.91;84.10;100759.22;5051126;28;20535;-91
2023/06/12 04:01:22;;;;;;;7.03;4.63;;;;;;;19.96;83.65;100757.00;5034772;28;20029;-92
2023/06/12 04:03:48;;;;;;;6.30;4.60;;;;;;;19.94;83.99;100766.81;5052691;28;20082;-91
2023/06/12 04:06:14;;;;;;;7.50;5.38;;;;;;;20.00;84.10;100766.28;5067802;28;20037;-91
2023/06/12 04:08:40;;;;;;;9.25;4.97;;;;;;;20.00;83.60;100766.28;5034688;28;20512;-92
2023/06/12 04:11:09;;;;;;;9.82;4.72;;;;;;;19.96;83.57;100762.25;5050927;28;20049;-93
2023/06/12 04:13:34;;;;;;;8.45;4.75;;;;;;;20.00;83.67;100753.16;5035252;28;20025;-92
2023/06/12 04:16:00;;;;;;;10.13;5.00;;;;;;;20.27;81.18;100756.03;5051394;28;20133;-91
2023/06/12 04:18:26;;;;;;;8.30;4.85;;;;;;;20.17;81.89;100765.66;5034963;28;20029;-91
2023/06/12 04:20:51;;;;;;;8.70;4.82;;;;;;;20.14;83.43;100759.84;5049327;28;20032;-87
2023/06/12 04:23:17;;;;;;;12.32;4.80;;;;;;;19.99;83.75;100756.75;5030083;28;20434;-89
2023/06/12 04:25:43;;;;;;;7.60;5.22;;;;;;;19.98;84.81;100760.34;5030493;28;20030;-90
2023/06/12 04:28:13;;;;;;;11.10;5.53;;;;;;;19.93;85.35;100758.09;5029022;28;20506;-91
2023/06/12 04:30:41;;;;;;;31.70;16.70;;;;;;;19.84;86.15;100755.44;5031203;28;20085;-88
2023/06/12 04:33:10;;;;;;;12.32;6.57;;;;;;;19.92;85.99;100755.63;5014272;28;20061;-92
2023/06/12 04:35:36;;;;;;;12.35;6.00;;;;;;;19.81;85.24;100732.09;5030631;28;20079;-87
2023/06/12 04:38:01;;;;;;;8.27;6.20;;;;;;;19.79;83.95;100741.88;5031160;28;20029;-89
2023/06/12 04:40:27;;;;;;;13.40;6.55;;;;;;;19.90;84.50;100753.13;5030955;28;20029;-91
2023/06/12 04:42:56;;;;;;;8.32;5.95;;;;;;;19.88;85.53;100764.72;5014675;28;20025;-89
2023/06/12 04:45:22;;;;;;;10.20;5.72;;;;;;;19.86;85.23;100761.38;5029872;28;20112;-90
2023/06/12 04:47:47;;;;;;;7.78;5.70;;;;;;;19.89;86.01;100767.22;5032262;28;20029;-92
2023/06/12 04:50:13;;;;;;;11.50;8.48;;;;;;;19.90;86.94;100762.81;5014079;28;20036;-87
2023/06/12 04:52:41;;;;;;;11.15;6.55;;;;;;;19.87;87.80;100763.06;5030012;28;20021;-92
2023/06/12 04:55:08;;;;;;;11.10;6.55;;;;;;;19.81;87.95;100763.59;5031200;28;20972;-92
2023/06/12 04:57:36;;;;;;;12.45;6.97;;;;;;;19.82;87.43;100766.06;5030204;28;20029;-89
2023/06/12 05:00:05;;;;;;;10.77;7.47;;;;;;;19.79;89.70;100768.13;5029273;28;20033;-89
2023/06/12 05:02:33;;;;;;;9.93;6.65;;;;;;;19.72;85.86;100765.19;5025135;28;20034;-93
2023/06/12 05:05:00;;;;;;;9.35;6.45;;;;;;;19.70;86.37;100760.09;5023690;28;20061;-93
2023/06/12 05:07:26;;;;;;;9.18;6.65;;;;;;;19.61;86.37;100747.75;5026810;28;20554;-90
2023/06/12 05:09:51;;;;;;;9.07;5.93;;;;;;;19.62;87.02;100759.91;5028510;28;20112;-88
2023/06/12 05:12:17;;;;;;;11.18;6.20;;;;;;;19.53;86.84;100746.69;5011356;28;20046;-84
2023/06/12 05:14:45;;;;;;;12.43;6.47;;;;;;;19.61;86.93;100762.66;5011895;28;20029;-91
2023/06/12 05:17:12;;;;;;;10.25;6.03;;;;;;;19.52;86.97;100758.97;5028288;28;20442;-90
2023/06/12 05:19:40;;;;;;;12.35;6.47;;;;;;;19.42;86.98;100742.34;5027820;28;20034;-88
2023/06/12 05:22:06;;;;;;;11.65;6.38;;;;;;;19.54;87.46;100756.22;5044614;28;20056;-86
2023/06/12 05:24:32;;;;;;;9.85;6.35;;;;;;;19.49;87.22;100754.00;5028064;28;20072;-88
2023/06/12 05:26:57;;;;;;;8.95;6.25;;;;;;;19.34;85.88;100747.41;5012625;28;20033;-86
2023/06/12 05:29:23;;;;;;;9.93;6.60;;;;;;;19.54;87.21;100759.66;5010104;28;20033;-86
2023/06/12 05:31:48;;;;;;;11.05;7.03;;;;;;;19.57;87.84;100761.25;5027424;28;20094;-85
2023/06/12 05:34:15;;;;;;;11.95;6.53;;;;;;;19.60;86.39;100748.69;5044290;28;20095;-93
2023/06/12 05:36:41;;;;;;;8.02;5.50;;;;;;;19.56;86.08;100765.66;5028140;28;20116;-91
2023/06/12 05:39:06;;;;;;;9.18;5.90;;;;;;;19.47;86.99;100763.78;5028854;28;20026;-90
2023/06/12 05:41:32;;;;;;;8.98;5.85;;;;;;;19.45;86.53;100768.31;4999790;28;20045;-90
2023/06/12 05:43:58;;;;;;;9.43;6.28;;;;;;;19.43;86.38;100762.38;4993335;28;20037;-91
2023/06/12 05:46:23;;;;;;;10.75;6.22;;;;;;;19.36;86.46;100763.84;5012244;28;20092;-91
2023/06/12 05:48:49;;;;;;;13.45;6.05;;;;;;;19.26;86.50;100757.69;5027675;28;20038;-89
2023/06/12 05:51:15;;;;;;;10.73;6.28;;;;;;;19.27;86.55;100761.97;5011707;28;20068;-87
2023/06/12 05:53:44;;;;;;;13.80;9.25;;;;;;;19.28;87.18;100768.91;5012412;28;20045;-87
2023/06/12 05:56:12;;;;;;;10.63;7.03;;;;;;;19.36;87.67;100776.94;5045088;28;20368;-88
2023/06/12 05:58:39;;;;;;;9.13;6.80;;;;;;;19.36;88.18;100769.09;5031049;28;20064;-88
2023/06/12 06:01:05;;;;;;;8.60;6.15;;;;;;;19.30;87.43;100769.63;5034785;28;20029;-89
2023/06/12 06:03:32;;;;;;;12.15;6.93;;;;;;;19.35;88.08;100772.66;5016603;28;20513;-91
2023/06/12 06:05:58;;;;;;;11.40;6.85;;;;;;;19.42;88.97;100782.53;5027630;28;20117;-89
2023/06/12 06:08:23;;;;;;;10.43;6.28;;;;;;;19.49;88.90;100777.59;5033448;28;20022;-85
2023/06/12 06:10:49;;;;;;;9.48;6.10;;;;;;;19.51;88.29;100782.72;5032696;28;20057;-89
2023/06/12 06:13:15;;;;;;;10.63;5.95;;;;;;;19.53;86.51;100789.50;5034491;28;20491;-90
2023/06/12 06:15:40;;;;;;;8.43;6.00;;;;;;;19.51;86.66;100791.44;5048585;28;20029;-86
2023/06/12 06:18:06;;;;;;;8.52;6.30;;;;;;;19.44;86.46;100787.66;5049737;28;20069;-87
2023/06/12 06:20:33;;;;;;;9.65;6.38;;;;;;;19.42;85.90;100800.06;5016305;28;20521;-92
2023/06/12 06:22:59;;;;;;;63.75;30.00;;;;;;;19.30;87.28;100795.84;5032890;28;20096;-91
2023/06/12 06:25:24;;;;;;;46.13;29.58;;;;;;;19.38;87.70;100790.78;5016287;28;20502;-87
2023/06/12 06:27:50;;;;;;;67.38;36.80;;;;;;;19.44;87.41;100800.75;5032593;28;20029;-89
2023/06/12 06:30:15;;;;;;;36.60;18.60;;;;;;;19.38;86.85;100780.31;5033160;28;20036;-88
2023/06/12 06:32:41;;;;;;;17.25;9.35;;;;;;;19.57;87.55;100806.69;5036050;28;20040;-87
2023/06/12 06:35:06;;;;;;;11.25;6.78;;;;;;;19.34;85.48;100792.00;5016081;28;20471;-89
2023/06/12 06:37:32;;;;;;;10.30;7.30;;;;;;;19.49;85.70;100802.06;5033944;28;20029;-92
2023/06/12 06:39:57;;;;;;;17.98;10.77;;;;;;;19.52;84.92;100805.38;5017209;28;20060;-94
2023/06/12 06:42:23;;;;;;;10.40;6.28;;;;;;;19.54;85.10;100809.53;5017013;28;20418;-90
2023/06/12 06:44:49;;;;;;;8.55;5.75;;;;;;;19.56;85.54;100810.25;5014571;28;20140;-90
2023/06/12 06:47:14;;;;;;;14.23;6.63;;;;;;;19.59;85.55;100804.78;5014373;28;20030;-88
2023/06/12 06:49:40;;;;;;;9.65;6.30;;;;;;;19.59;86.41;100814.44;5033507;28;20033;-90
2023/06/12 06:52:06;;;;;;;9.50;6.32;;;;;;;19.61;85.54;100815.97;5014506;28;20096;-91
2023/06/12 06:54:31;;;;;;;9.52;6.40;;;;;;;19.69;85.95;100813.53;5016383;28;20025;-93
2023/06/12 06:56:57;;;;;;;9.30;6.35;;;;;;;19.60;84.25;100810.84;5013672;28;20100;-92
2023/06/12 06:59:23;;;;;;;10.07;7.05;;;;;;;19.71;86.37;100822.09;5017762;28;20078;-94
2023/06/12 07:01:48;;;;;;;11.50;6.40;;;;;;;19.76;86.20;100819.94;5035301;28;20040;-93
2023/06/12 07:04:14;;;;;;;9.88;6.82;;;;;;;19.86;85.74;100824.38;5033221;28;20406;-93
2023/06/12 07:06:39;;;;;;;13.43;7.25;;;;;;;19.73;85.99;100808.84;5035532;28;20034;-91
2023/06/12 07:09:05;;;;;;;10.05;7.07;;;;;;;19.69;84.54;100812.72;5050973;28;20044;-91
2023/06/12 07:11:31;;;;;;;11.25;6.80;;;;;;;19.67;84.06;100818.09;5022926;28;20041;-95
2023/06/12 07:13:57;;;;;;;11.35;6.25;;;;;;;19.61;85.40;100813.34;5041562;28;20549;-89
2023/06/12 07:16:22;;;;;;;11.48;7.18;;;;;;;19.63;84.96;100819.28;5017029;28;20491;-94
2023/06/12 07:18:48;;;;;;;8.30;6.32;;;;;;;19.69;84.06;100825.84;5031823;28;20044;-92
2023/06/12 07:21:14;;;;;;;12.52;6.70;;;;;;;19.74;85.62;100821.84;5016520;28;20044;-92
2023/06/12 07:23:39;;;;;;;10.23;6.28;;;;;;;19.79;85.26;100833.75;5033047;28;20038;-92
2023/06/12 07:26:05;;;;;;;8.82;6.63;;;;;;;19.68;85.49;100811.03;5016008;28;20040;-93
2023/06/12 07:28:31;;;;;;;10.43;7.03;;;;;;;19.87;85.45;100826.91;5017632;28;20029;-93
2023/06/12 07:30:56;;;;;;;19.25;11.82;;;;;;;19.79;85.46;100825.88;5034148;28;20487;-89
2023/06/12 07:33:21;;;;;;;11.90;8.60;;;;;;;19.84;84.34;100832.41;5021359;28;20091;-89
2023/06/12 07:35:47;;;;;;;11.68;8.35;;;;;;;19.84;84.99;100826.31;5015896;28;20414;-92
2023/06/12 07:38:13;;;;;;;26.40;16.05;;;;;;;19.92;86.43;100837.00;5029246;28;21292;-93
2023/06/12 07:40:38;;;;;;;14.23;8.73;;;;;;;19.90;86.07;100828.44;5026976;28;20519;-86
2023/06/12 07:43:04;;;;;;;33.50;20.83;;;;;;;19.85;84.54;100825.34;5029532;28;20025;-93
2023/06/12 07:45:30;;;;;;;13.65;9.25;;;;;;;20.16;85.00;100827.06;5031031;28;20025;-90
2023/06/12 07:47:57;;;;;;;11.18;7.50;;;;;;;20.08;84.03;100829.50;5032029;28;20139;-90
2023/06/12 07:50:23;;;;;;;11.77;8.13;;;;;;;20.07;82.94;100819.97;5018452;28;20093;-94
2023/06/12 07:52:49;;;;;;;12.75;8.10;;;;;;;19.89;84.36;100798.72;5030152;28;20087;-91
2023/06/12 07:55:14;;;;;;;13.27;8.70;;;;;;;19.98;83.31;100823.38;5033347;28;20035;-90
2023/06/12 07:57:40;;;;;;;12.00;8.30;;;;;;;20.01;83.64;100823.09;5018237;28;20037;-94
2023/06/12 08:00:07;;;;;;;13.05;8.73;;;;;;;20.03;84.73;100823.78;5032805;28;20037;-93
2023/06/12 08:02:33;;;;;;;13.73;8.80;;;;;;;20.03;85.59;100821.16;5016884;28;20466;-95
2023/06/12 08:04:59;;;;;;;14.63;8.82;;;;;;;20.05;85.78;100830.56;5017663;28;20545;-93
2023/06/12 08:07:27;;;;;;;13.25;9.00;;;;;;;20.02;84.32;100824.75;5017123;28;20037;-91
2023/06/12 08:09:53;;;;;;;16.23;9.48;;;;;;;20.07;84.04;100827.84;5049682;28;20133;-92
2023/06/12 08:12:19;;;;;;;14.93;9.00;;;;;;;20.09;83.44;100831.16;5040280;28;20033;-93
2023/06/12 08:14:47;;;;;;;11.48;8.55;;;;;;;20.02;83.52;100822.13;5034325;28;20030;-91
2023/06/12 08:17:13;;;;;;;13.30;8.68;;;;;;;20.06;84.02;100836.69;5028780;28;20424;-90
2023/06/12 08:19:39;;;;;;;17.13;9.18;;;;;;;20.10;82.88;100840.69;5027549;28;20687;-87
2023/06/12 08:22:07;;;;;;;15.52;9.50;;;;;;;20.09;83.60;100836.41;5028458;28;20057;-86
2023/06/12 08:24:33;;;;;;;15.93;10.20;;;;;;;20.12;83.92;100833.50;5031277;28;20029;-87
2023/06/12 08:26:59;;;;;;;11.55;8.80;;;;;;;20.16;83.01;100837.56;5033101;28;20029;-90
2023/06/12 08:29:25;;;;;;;16.35;10.10;;;;;;;20.09;82.19;100828.53;5030418;28;20026;-89
2023/06/12 08:31:51;;;;;;;11.10;8.25;;;;;;;20.02;82.99;100828.22;5032213;28;20056;-92
2023/06/12 08:34:16;;;;;;;14.05;9.35;;;;;;;20.13;84.65;100837.81;5029759;28;20036;-91
2023/06/12 08:36:42;;;;;;;11.85;7.30;;;;;;;20.05;83.66;100845.50;5011419;28;20030;-90
2023/06/12 08:39:08;;;;;;;14.80;7.97;;;;;;;19.95;84.39;100842.00;5012391;28;20048;-89
2023/06/12 08:41:34;;;;;;;10.82;8.13;;;;;;;19.98;83.93;100854.88;5045088;28;20037;-93
2023/06/12 08:44:00;;;;;;;11.48;8.27;;;;;;;19.81;83.59;100844.97;5013462;28;20739;-89
2023/06/12 08:46:29;;;;;;;12.85;8.18;;;;;;;19.82;84.01;100842.19;5009321;28;20041;-91
2023/06/12 08:48:54;;;;;;;11.05;7.72;;;;;;;19.84;84.64;100845.53;5013981;28;20116;-88
2023/06/12 08:51:20;;;;;;;12.60;7.28;;;;;;;19.90;84.54;100862.56;5048130;28;20466;-92
2023/06/12 08:53:46;;;;;;;13.05;8.27;;;;;;;19.81;83.61;100864.16;5044692;28;20029;-93
2023/06/12 08:56:11;;;;;;;10.40;7.65;;;;;;;19.57;83.72;100825.06;5029533;28;20467;-92
2023/06/12 08:58:37;;;;;;;10.20;7.32;;;;;;;19.60;83.56;100847.59;5030482;28;20033;-89
2023/06/12 09:01:04;;;;;;;11.20;8.13;;;;;;;19.68;84.43;100855.66;5030163;28;20029;-89
2023/06/12 09:03:31;;;;;;;11.98;8.43;;;;;;;19.69;83.51;100860.78;5015999;28;20600;-93
2023/06/12 09:05:58;;;;;;;11.27;8.10;;;;;;;19.71;83.59;100869.34;5051385;28;20045;-93
2023/06/12 09:08:23;;;;;;;11.65;8.10;;;;;;;19.70;84.06;100861.63;5010611;28;20029;-92
2023/06/12 09:10:49;;;;;;;15.77;8.55;;;;;;;19.73;84.37;100856.94;5014888;28;20514;-94
2023/06/12 09:13:15;;;;;;;11.48;8.38;;;;;;;19.76;83.71;100863.72;5031437;28;20033;-92
2023/06/12 09:15:50;;;;;;;23.42;14.88;;;;;;;19.77;84.79;100863.59;5032355;28;20060;-94
2023/06/12 09:18:15;;;;;;;17.60;10.77;;;;;;;19.75;83.52;100843.66;5028540;28;20507;-91
2023/06/12 09:20:41;;;;;;;11.43;8.13;;;;;;;19.91;83.44;100858.97;5029719;28;20025;-91
2023/06/12 09:23:06;;;;;;;12.68;8.50;;;;;;;19.92;83.70;100850.13;5028755;28;20089;-92
2023/06/12 09:25:37;;;;;;;11.23;8.38;;;;;;;19.98;82.99;100849.63;5029122;28;20495;-93
2023/06/12 09:28:07;;;;;;;13.20;8.98;;;;;;;20.00;82.59;100837.19;5013561;28;20025;-90
2023/06/12 09:30:33;;;;;;;17.02;9.93;;;;;;;20.00;81.52;100847.69;5030986;28;20032;-93
2023/06/12 09:33:02;;;;;;;15.40;9.93;;;;;;;19.96;80.54;100836.63;5013488;28;20426;-88
2023/06/12 09:35:28;;;;;;;14.70;8.00;;;;;;;20.10;81.12;100848.56;5028698;28;20021;-86
2023/06/12 09:37:54;;;;;;;14.10;8.20;;;;;;;20.16;82.38;100853.31;5028679;28;20030;-87
2023/06/12 09:40:19;;;;;;;11.50;8.32;;;;;;;20.31;82.01;100851.16;5012152;28;20071;-87
2023/06/12 09:42:45;;;;;;;13.02;8.43;;;;;;;20.23;81.99;100838.66;5044816;28;20030;-87
2023/06/12 09:45:20;;;;;;;14.05;9.23;;;;;;;20.23;80.50;100841.31;5030751;28;20025;-94
2023/06/12 09:47:47;;;;;;;17.02;8.77;;;;;;;20.25;79.54;100842.00;5013276;28;20080;-91
2023/06/12 09:50:13;;;;;;;12.65;8.70;;;;;;;20.24;79.77;100850.00;5015080;28;20033;-89
2023/06/12 09:52:40;;;;;;;13.18;8.88;;;;;;;20.28;79.30;100849.63;5031032;28;20096;-87
2023/06/12 09:55:06;;;;;;;12.43;8.82;;;;;;;20.25;79.48;100859.56;5044474;28;20029;-87
2023/06/12 09:57:33;;;;;;;12.68;8.35;;;;;;;20.27;79.67;100861.09;5028393;28;20025;-92
2023/06/12 09:59:58;;;;;;;14.90;9.23;;;;;;;20.32;79.24;100853.66;5028832;28;20493;-93
2023/06/12 10:02:24;;;;;;;15.45;8.40;;;;;;;20.32;79.08;100853.66;5028506;28;20044;-91
2023/06/12 10:05:16;;;;;;;11.95;8.75;;;;;;;20.39;79.14;100855.75;5028118;28;20434;-91
2023/06/12 10:07:51;;;;;;;12.20;8.43;;;;;;;20.45;79.95;100849.97;5001672;28;20069;-90
2023/06/12 10:10:18;;;;;;;12.70;8.60;;;;;;;20.53;78.62;100852.78;5025901;28;20068;-91
2023/06/12 10:12:44;;;;;;;18.83;8.65;;;;;;;20.69;77.84;100855.75;5013367;28;20143;-93
2023/06/12 10:15:10;;;;;;;15.85;8.70;;;;;;;20.66;76.84;100842.03;5013369;28;20041;-86
2023/06/12 10:17:35;;;;;;;14.00;8.88;;;;;;;20.88;76.60;100855.78;5046039;28;20029;-92
2023/06/12 10:20:02;;;;;;;12.82;9.07;;;;;;;20.98;76.26;100854.97;5013963;28;20025;-94
2023/06/12 10:22:28;;;;;;;11.90;8.15;;;;;;;20.94;75.31;100838.63;5013812;28;20026;-86
2023/06/12 10:24:55;;;;;;;19.85;8.45;;;;;;;21.07;74.57;100843.63;5030989;28;20036;-94
2023/06/12 10:27:20;;;;;;;11.70;8.25;;;;;;;21.19;73.93;100845.16;5030215;28;20089;-91
2023/06/12 10:29:49;;;;;;;11.60;7.97;;;;;;;21.29;75.05;100843.38;5013154;28;20037;-92
2023/06/12 10:32:14;;;;;;;13.35;9.77;;;;;;;21.50;74.45;100829.25;5028494;28;20091;-90
2023/06/12 10:34:41;;;;;;;13.60;9.45;;;;;;;21.60;72.50;100840.59;5027020;28;20021;-91
2023/06/12 10:37:24;;;;;;;11.50;8.02;;;;;;;21.74;71.93;100832.25;5026568;28;20065;-89
2023/06/12 10:40:21;;;;;;;12.95;7.70;;;;;;;21.83;71.49;100841.94;5026768;28;20510;-89
2023/06/12 10:43:02;;;;;;;16.73;8.73;;;;;;;21.74;70.77;100821.72;5042362;28;20048;-87
2023/06/12 10:45:31;;;;;;;10.10;7.18;;;;;;;21.89;70.62;100830.00;5045778;28;20120;-90
2023/06/12 10:48:06;;;;;;;12.07;7.78;;;;;;;22.05;71.14;100815.25;4993832;28;20649;-91
2023/06/12 10:50:32;;;;;;;15.82;9.48;;;;;;;22.17;70.42;100812.47;5011143;28;20029;-90
2023/06/12 10:53:07;;;;;;;11.82;7.40;;;;;;;22.11;69.97;100810.38;5024148;28;20112;-91
2023/06/12 10:55:36;;;;;;;12.20;7.47;;;;;;;22.17;70.54;100813.28;5032939;28;20045;-93
2023/06/12 10:58:08;;;;;;;9.27;7.43;;;;;;;22.00;72.31;100806.94;5016533;28;20029;-90
2023/06/12 11:00:38;;;;;;;9.68;7.65;;;;;;;21.91;71.50;100796.44;5032150;28;20029;-85
2023/06/12 11:03:13;;;;;;;10.77;7.55;;;;;;;21.94;71.19;100802.25;5031589;28;20030;-90
2023/06/12 11:05:44;;;;;;;12.02;7.93;;;;;;;21.89;71.22;100793.94;5031617;28;20057;-91
2023/06/12 11:08:10;;;;;;;13.52;7.68;;;;;;;21.99;71.76;100793.91;5032760;28;20578;-88
2023/06/12 11:10:36;;;;;;;11.73;7.07;;;;;;;22.10;70.28;100795.56;5033764;28;20034;-92
2023/06/12 11:13:02;;;;;;;9.48;6.72;;;;;;;22.14;69.99;100797.78;5032730;28;20081;-90
2023/06/12 11:15:28;;;;;;;12.52;7.80;;;;;;;22.15;70.12;100788.06;5031026;28;20027;-92
2023/06/12 11:17:53;;;;;;;13.38;7.20;;;;;;;22.18;70.31;100790.41;5032049;28;20549;-92
2023/06/12 11:20:22;;;;;;;11.93;7.00;;;;;;;22.16;70.76;100787.09;5029938;28;20491;-91